sensor_id;sensor_type;location;lat;lon;timestamp;P1;durP1;ratioP1;P2;durP2;ratioP2
3379;SDS011;1703;51.964;7.642;2023-04-15T00:01:50;14.60;;;6.40;;
3379;SDS011;1703;51.964;7.642;2023-04-15T00:04:17;9.80;;;6.00;;
3379;SDS011;1703;51.964;7.642;2023-04-15T00:06:48;11.20;;;6.00;;
3379;SDS011;1703;51.964;7.642;2023-04-15T00:09:17;10.27;;;4.80;;
3379;SDS011;1703;51.964;7.642;2023-04-15T00:11:43;8.50;;;5.57;;
3379;SDS011;1703;51.964;7.642;2023-04-15T00:14:12;8.03;;;6.03;;
3379;SDS011;1703;51.964;7.642;2023-04-15T00:16:39;7.80;;;6.60;;
3379;SDS011;1703;51.964;7.642;2023-04-15T00:19:06;7.50;;;5.50;;
3379;SDS011;1703;51.964;7.642;2023-04-15T00:21:33;11.93;;;6.10;;
3379;SDS011;1703;51.964;7.642;2023-04-15T00:24:00;7.20;;;6.10;;
3379;SDS011;1703;51.964;7.642;2023-04-15T00:26:27;11.70;;;6.10;;
3379;SDS011;1703;51.964;7.642;2023-04-15T00:28:55;8.87;;;6.50;;
3379;SDS011;1703;51.964;7.642;2023-04-15T00:31:23;10.23;;;6.27;;
3379;SDS011;1703;51.964;7.642;2023-04-15T00:33:50;15.80;;;6.30;;
3379;SDS011;1703;51.964;7.642;2023-04-15T00:36:17;9.40;;;5.70;;
3379;SDS011;1703;51.964;7.642;2023-04-15T00:38:44;7.87;;;6.80;;
3379;SDS011;1703;51.964;7.642;2023-04-15T00:41:10;9.50;;;6.30;;
3379;SDS011;1703;51.964;7.642;2023-04-15T00:43:38;5.37;;;4.77;;
3379;SDS011;1703;51.964;7.642;2023-04-15T00:46:05;10.70;;;6.30;;
3379;SDS011;1703;51.964;7.642;2023-04-15T00:48:34;9.13;;;5.60;;
3379;SDS011;1703;51.964;7.642;2023-04-15T00:51:03;8.27;;;6.00;;
3379;SDS011;1703;51.964;7.642;2023-04-15T00:53:31;8.57;;;6.53;;
3379;SDS011;1703;51.964;7.642;2023-04-15T00:55:58;11.63;;;7.30;;
3379;SDS011;1703;51.964;7.642;2023-04-15T00:58:25;8.20;;;5.70;;
3379;SDS011;1703;51.964;7.642;2023-04-15T01:00:53;7.83;;;6.27;;
3379;SDS011;1703;51.964;7.642;2023-04-15T01:03:21;7.43;;;5.40;;
3379;SDS011;1703;51.964;7.642;2023-04-15T01:05:49;8.60;;;6.77;;
3379;SDS011;1703;51.964;7.642;2023-04-15T01:08:22;9.57;;;6.13;;
3379;SDS011;1703;51.964;7.642;2023-04-15T01:10:51;11.10;;;7.30;;
3379;SDS011;1703;51.964;7.642;2023-04-15T01:13:19;10.97;;;7.00;;
3379;SDS011;1703;51.964;7.642;2023-04-15T01:15:48;12.10;;;7.20;;
3379;SDS011;1703;51.964;7.642;2023-04-15T01:18:16;7.80;;;7.00;;
3379;SDS011;1703;51.964;7.642;2023-04-15T01:20:43;10.60;;;7.23;;
3379;SDS011;1703;51.964;7.642;2023-04-15T01:23:12;7.67;;;5.93;;
3379;SDS011;1703;51.964;7.642;2023-04-15T01:25:40;10.40;;;6.60;;
3379;SDS011;1703;51.964;7.642;2023-04-15T01:28:09;10.70;;;6.83;;
3379;SDS011;1703;51.964;7.642;2023-04-15T01:30:36;11.37;;;7.07;;
3379;SDS011;1703;51.964;7.642;2023-04-15T01:33:02;9.53;;;7.17;;
3379;SDS011;1703;51.964;7.642;2023-04-15T01:35:29;8.97;;;7.33;;
3379;SDS011;1703;51.964;7.642;2023-04-15T01:37:57;8.40;;;6.90;;
3379;SDS011;1703;51.964;7.642;2023-04-15T01:40:30;8.27;;;7.00;;
3379;SDS011;1703;51.964;7.642;2023-04-15T01:42:58;10.70;;;6.60;;
3379;SDS011;1703;51.964;7.642;2023-04-15T01:45:25;7.97;;;6.00;;
3379;SDS011;1703;51.964;7.642;2023-04-15T01:47:52;8.17;;;6.60;;
3379;SDS011;1703;51.964;7.642;2023-04-15T01:50:18;12.83;;;7.60;;
3379;SDS011;1703;51.964;7.642;2023-04-15T01:52:46;12.20;;;7.43;;
3379;SDS011;1703;51.964;7.642;2023-04-15T01:55:13;11.70;;;6.87;;
3379;SDS011;1703;51.964;7.642;2023-04-15T01:57:40;12.03;;;7.27;;
3379;SDS011;1703;51.964;7.642;2023-04-15T02:00:08;11.40;;;7.20;;
3379;SDS011;1703;51.964;7.642;2023-04-15T02:02:40;8.47;;;6.90;;
3379;SDS011;1703;51.964;7.642;2023-04-15T02:05:07;10.10;;;6.47;;
3379;SDS011;1703;51.964;7.642;2023-04-15T02:07:35;12.93;;;7.30;;
3379;SDS011;1703;51.964;7.642;2023-04-15T02:10:02;8.00;;;7.20;;
3379;SDS011;1703;51.964;7.642;2023-04-15T02:12:29;8.83;;;7.63;;
3379;SDS011;1703;51.964;7.642;2023-04-15T02:14:56;9.83;;;6.80;;
3379;SDS011;1703;51.964;7.642;2023-04-15T02:17:24;15.80;;;8.27;;
3379;SDS011;1703;51.964;7.642;2023-04-15T02:19:51;7.77;;;6.97;;
3379;SDS011;1703;51.964;7.642;2023-04-15T02:22:18;8.20;;;7.00;;
3379;SDS011;1703;51.964;7.642;2023-04-15T02:24:45;10.63;;;6.60;;
3379;SDS011;1703;51.964;7.642;2023-04-15T02:27:14;8.93;;;6.63;;
3379;SDS011;1703;51.964;7.642;2023-04-15T02:29:42;9.43;;;7.17;;
3379;SDS011;1703;51.964;7.642;2023-04-15T02:32:08;10.00;;;7.20;;
3379;SDS011;1703;51.964;7.642;2023-04-15T02:34:37;10.10;;;7.47;;
3379;SDS011;1703;51.964;7.642;2023-04-15T02:37:07;8.37;;;7.13;;
3379;SDS011;1703;51.964;7.642;2023-04-15T02:39:35;9.27;;;7.63;;
3379;SDS011;1703;51.964;7.642;2023-04-15T02:42:03;14.70;;;7.50;;
3379;SDS011;1703;51.964;7.642;2023-04-15T02:44:30;11.40;;;7.50;;
3379;SDS011;1703;51.964;7.642;2023-04-15T02:47:01;16.70;;;7.73;;
3379;SDS011;1703;51.964;7.642;2023-04-15T02:49:29;12.00;;;7.47;;
3379;SDS011;1703;51.964;7.642;2023-04-15T02:51:57;10.57;;;7.10;;
3379;SDS011;1703;51.964;7.642;2023-04-15T02:54:25;12.20;;;9.00;;
3379;SDS011;1703;51.964;7.642;2023-04-15T02:56:53;7.77;;;5.90;;
3379;SDS011;1703;51.964;7.642;2023-04-15T02:59:21;9.50;;;8.50;;
3379;SDS011;1703;51.964;7.642;2023-04-15T03:01:48;8.47;;;6.70;;
3379;SDS011;1703;51.964;7.642;2023-04-15T03:04:15;9.60;;;7.00;;
3379;SDS011;1703;51.964;7.642;2023-04-15T03:06:42;10.73;;;7.70;;
3379;SDS011;1703;51.964;7.642;2023-04-15T03:09:10;9.70;;;7.70;;
3379;SDS011;1703;51.964;7.642;2023-04-15T03:11:37;8.57;;;7.13;;
3379;SDS011;1703;51.964;7.642;2023-04-15T03:14:08;9.50;;;7.00;;
3379;SDS011;1703;51.964;7.642;2023-04-15T03:16:39;10.73;;;7.83;;
3379;SDS011;1703;51.964;7.642;2023-04-15T03:19:05;9.10;;;7.00;;
3379;SDS011;1703;51.964;7.642;2023-04-15T03:21:33;9.87;;;7.60;;
3379;SDS011;1703;51.964;7.642;2023-04-15T03:23:59;9.20;;;6.90;;
3379;SDS011;1703;51.964;7.642;2023-04-15T03:26:28;12.83;;;7.83;;
3379;SDS011;1703;51.964;7.642;2023-04-15T03:29:09;10.13;;;6.80;;
3379;SDS011;1703;51.964;7.642;2023-04-15T03:31:36;9.80;;;7.37;;
3379;SDS011;1703;51.964;7.642;2023-04-15T03:34:03;13.77;;;9.90;;
3379;SDS011;1703;51.964;7.642;2023-04-15T03:36:30;12.87;;;7.60;;
3379;SDS011;1703;51.964;7.642;2023-04-15T03:38:58;10.37;;;7.57;;
3379;SDS011;1703;51.964;7.642;2023-04-15T03:41:26;9.17;;;8.27;;
3379;SDS011;1703;51.964;7.642;2023-04-15T03:43:54;12.00;;;8.80;;
3379;SDS011;1703;51.964;7.642;2023-04-15T03:46:21;12.13;;;7.40;;
3379;SDS011;1703;51.964;7.642;2023-04-15T03:48:48;12.07;;;9.27;;
3379;SDS011;1703;51.964;7.642;2023-04-15T03:51:15;10.43;;;8.27;;
3379;SDS011;1703;51.964;7.642;2023-04-15T03:53:41;10.90;;;7.80;;
3379;SDS011;1703;51.964;7.642;2023-04-15T03:56:08;10.30;;;8.50;;
3379;SDS011;1703;51.964;7.642;2023-04-15T03:58:35;8.97;;;8.03;;
3379;SDS011;1703;51.964;7.642;2023-04-15T04:01:03;9.23;;;7.83;;
3379;SDS011;1703;51.964;7.642;2023-04-15T04:03:30;12.40;;;9.37;;
3379;SDS011;1703;51.964;7.642;2023-04-15T04:05:57;14.53;;;8.90;;
3379;SDS011;1703;51.964;7.642;2023-04-15T04:08:24;10.37;;;9.10;;
3379;SDS011;1703;51.964;7.642;2023-04-15T04:10:51;11.90;;;8.03;;
3379;SDS011;1703;51.964;7.642;2023-04-15T04:13:18;13.37;;;9.00;;
3379;SDS011;1703;51.964;7.642;2023-04-15T04:15:45;14.00;;;8.93;;
3379;SDS011;1703;51.964;7.642;2023-04-15T04:18:13;10.93;;;7.13;;
3379;SDS011;1703;51.964;7.642;2023-04-15T04:20:40;11.77;;;9.30;;
3379;SDS011;1703;51.964;7.642;2023-04-15T04:23:07;16.23;;;8.67;;
3379;SDS011;1703;51.964;7.642;2023-04-15T04:25:33;12.30;;;9.40;;
3379;SDS011;1703;51.964;7.642;2023-04-15T04:28:00;10.67;;;8.00;;
3379;SDS011;1703;51.964;7.642;2023-04-15T04:30:27;13.20;;;8.23;;
3379;SDS011;1703;51.964;7.642;2023-04-15T04:32:54;14.87;;;8.70;;
3379;SDS011;1703;51.964;7.642;2023-04-15T04:35:22;12.70;;;9.60;;
3379;SDS011;1703;51.964;7.642;2023-04-15T04:37:49;15.60;;;8.70;;
3379;SDS011;1703;51.964;7.642;2023-04-15T04:40:16;11.47;;;9.20;;
3379;SDS011;1703;51.964;7.642;2023-04-15T04:42:43;11.40;;;9.00;;
3379;SDS011;1703;51.964;7.642;2023-04-15T04:45:10;12.90;;;8.77;;
3379;SDS011;1703;51.964;7.642;2023-04-15T04:47:37;14.53;;;9.67;;
3379;SDS011;1703;51.964;7.642;2023-04-15T04:50:04;14.77;;;8.50;;
3379;SDS011;1703;51.964;7.642;2023-04-15T04:52:34;11.57;;;8.87;;
3379;SDS011;1703;51.964;7.642;2023-04-15T04:55:01;12.90;;;9.00;;
3379;SDS011;1703;51.964;7.642;2023-04-15T04:57:28;14.27;;;10.10;;
3379;SDS011;1703;51.964;7.642;2023-04-15T04:59:55;12.63;;;9.03;;
3379;SDS011;1703;51.964;7.642;2023-04-15T05:02:21;11.70;;;8.57;;
3379;SDS011;1703;51.964;7.642;2023-04-15T05:04:51;10.93;;;9.37;;
3379;SDS011;1703;51.964;7.642;2023-04-15T05:07:18;15.30;;;10.80;;
3379;SDS011;1703;51.964;7.642;2023-04-15T05:09:46;11.47;;;9.70;;
3379;SDS011;1703;51.964;7.642;2023-04-15T05:12:13;13.73;;;9.33;;
3379;SDS011;1703;51.964;7.642;2023-04-15T05:14:40;12.17;;;10.10;;
3379;SDS011;1703;51.964;7.642;2023-04-15T05:17:07;14.70;;;10.70;;
3379;SDS011;1703;51.964;7.642;2023-04-15T05:19:35;15.33;;;10.50;;
3379;SDS011;1703;51.964;7.642;2023-04-15T05:22:02;13.77;;;9.63;;
3379;SDS011;1703;51.964;7.642;2023-04-15T05:24:28;15.53;;;10.33;;
3379;SDS011;1703;51.964;7.642;2023-04-15T05:26:58;17.40;;;10.20;;
3379;SDS011;1703;51.964;7.642;2023-04-15T05:29:26;13.53;;;10.93;;
3379;SDS011;1703;51.964;7.642;2023-04-15T05:31:52;11.70;;;9.10;;
3379;SDS011;1703;51.964;7.642;2023-04-15T05:34:19;18.37;;;10.90;;
3379;SDS011;1703;51.964;7.642;2023-04-15T05:36:46;11.70;;;10.50;;
3379;SDS011;1703;51.964;7.642;2023-04-15T05:39:13;12.60;;;10.57;;
3379;SDS011;1703;51.964;7.642;2023-04-15T05:41:41;11.00;;;9.80;;
3379;SDS011;1703;51.964;7.642;2023-04-15T05:44:09;13.37;;;10.00;;
3379;SDS011;1703;51.964;7.642;2023-04-15T05:46:36;15.80;;;10.17;;
3379;SDS011;1703;51.964;7.642;2023-04-15T05:49:02;13.20;;;9.80;;
3379;SDS011;1703;51.964;7.642;2023-04-15T05:51:29;13.60;;;10.30;;
3379;SDS011;1703;51.964;7.642;2023-04-15T05:53:56;12.60;;;9.50;;
3379;SDS011;1703;51.964;7.642;2023-04-15T05:56:23;15.00;;;10.27;;
3379;SDS011;1703;51.964;7.642;2023-04-15T05:58:51;12.00;;;10.00;;
3379;SDS011;1703;51.964;7.642;2023-04-15T06:01:20;12.70;;;9.40;;
3379;SDS011;1703;51.964;7.642;2023-04-15T06:03:46;14.13;;;10.90;;
3379;SDS011;1703;51.964;7.642;2023-04-15T06:06:14;11.57;;;8.60;;
3379;SDS011;1703;51.964;7.642;2023-04-15T06:08:41;20.43;;;9.90;;
3379;SDS011;1703;51.964;7.642;2023-04-15T06:11:07;17.50;;;11.00;;
3379;SDS011;1703;51.964;7.642;2023-04-15T06:13:34;18.03;;;11.60;;
3379;SDS011;1703;51.964;7.642;2023-04-15T06:16:01;16.07;;;12.30;;
3379;SDS011;1703;51.964;7.642;2023-04-15T06:18:30;11.60;;;9.30;;
3379;SDS011;1703;51.964;7.642;2023-04-15T06:20:57;13.80;;;9.80;;
3379;SDS011;1703;51.964;7.642;2023-04-15T06:23:24;16.50;;;11.33;;
3379;SDS011;1703;51.964;7.642;2023-04-15T06:25:51;15.00;;;10.60;;
3379;SDS011;1703;51.964;7.642;2023-04-15T06:28:17;16.77;;;10.80;;
3379;SDS011;1703;51.964;7.642;2023-04-15T06:30:44;14.63;;;10.80;;
3379;SDS011;1703;51.964;7.642;2023-04-15T06:33:11;15.47;;;10.73;;
3379;SDS011;1703;51.964;7.642;2023-04-15T06:35:39;17.83;;;12.47;;
3379;SDS011;1703;51.964;7.642;2023-04-15T06:38:06;13.43;;;10.77;;
3379;SDS011;1703;51.964;7.642;2023-04-15T06:40:33;13.50;;;10.17;;
3379;SDS011;1703;51.964;7.642;2023-04-15T06:43:00;13.80;;;11.67;;
3379;SDS011;1703;51.964;7.642;2023-04-15T06:45:27;16.60;;;11.80;;
3379;SDS011;1703;51.964;7.642;2023-04-15T06:47:54;14.10;;;10.70;;
3379;SDS011;1703;51.964;7.642;2023-04-15T06:50:20;15.87;;;10.73;;
3379;SDS011;1703;51.964;7.642;2023-04-15T06:52:49;13.97;;;10.53;;
3379;SDS011;1703;51.964;7.642;2023-04-15T06:55:16;16.30;;;12.50;;
3379;SDS011;1703;51.964;7.642;2023-04-15T06:57:43;13.27;;;10.83;;
3379;SDS011;1703;51.964;7.642;2023-04-15T07:00:10;14.83;;;11.90;;
3379;SDS011;1703;51.964;7.642;2023-04-15T07:02:37;12.47;;;9.50;;
3379;SDS011;1703;51.964;7.642;2023-04-15T07:05:05;22.17;;;13.00;;
3379;SDS011;1703;51.964;7.642;2023-04-15T07:07:32;19.27;;;11.13;;
3379;SDS011;1703;51.964;7.642;2023-04-15T07:10:01;17.90;;;12.77;;
3379;SDS011;1703;51.964;7.642;2023-04-15T07:12:28;17.57;;;12.10;;
3379;SDS011;1703;51.964;7.642;2023-04-15T07:14:55;13.00;;;9.87;;
3379;SDS011;1703;51.964;7.642;2023-04-15T07:17:22;15.97;;;11.47;;
3379;SDS011;1703;51.964;7.642;2023-04-15T07:19:49;14.50;;;10.53;;
3379;SDS011;1703;51.964;7.642;2023-04-15T07:22:15;16.37;;;12.60;;
3379;SDS011;1703;51.964;7.642;2023-04-15T07:24:42;22.33;;;11.67;;
3379;SDS011;1703;51.964;7.642;2023-04-15T07:27:10;18.30;;;10.83;;
3379;SDS011;1703;51.964;7.642;2023-04-15T07:29:37;18.20;;;12.17;;
3379;SDS011;1703;51.964;7.642;2023-04-15T07:32:04;17.30;;;10.57;;
3379;SDS011;1703;51.964;7.642;2023-04-15T07:34:31;15.67;;;11.80;;
3379;SDS011;1703;51.964;7.642;2023-04-15T07:36:58;15.77;;;12.60;;
3379;SDS011;1703;51.964;7.642;2023-04-15T07:39:25;16.27;;;10.10;;
3379;SDS011;1703;51.964;7.642;2023-04-15T07:41:53;13.30;;;10.23;;
3379;SDS011;1703;51.964;7.642;2023-04-15T07:44:21;20.40;;;11.90;;
3379;SDS011;1703;51.964;7.642;2023-04-15T07:46:48;14.93;;;11.60;;
3379;SDS011;1703;51.964;7.642;2023-04-15T07:49:15;15.70;;;11.90;;
3379;SDS011;1703;51.964;7.642;2023-04-15T07:51:43;14.27;;;11.37;;
3379;SDS011;1703;51.964;7.642;2023-04-15T07:54:10;17.13;;;10.77;;
3379;SDS011;1703;51.964;7.642;2023-04-15T07:56:37;13.07;;;10.60;;
3379;SDS011;1703;51.964;7.642;2023-04-15T07:59:04;15.27;;;10.20;;
3379;SDS011;1703;51.964;7.642;2023-04-15T08:01:32;11.80;;;10.27;;
3379;SDS011;1703;51.964;7.642;2023-04-15T08:03:59;11.50;;;9.57;;
3379;SDS011;1703;51.964;7.642;2023-04-15T08:06:26;14.57;;;10.57;;
3379;SDS011;1703;51.964;7.642;2023-04-15T08:08:53;15.30;;;10.47;;
3379;SDS011;1703;51.964;7.642;2023-04-15T08:11:20;15.67;;;9.13;;
3379;SDS011;1703;51.964;7.642;2023-04-15T08:13:48;12.10;;;10.33;;
3379;SDS011;1703;51.964;7.642;2023-04-15T08:16:16;12.20;;;9.53;;
3379;SDS011;1703;51.964;7.642;2023-04-15T08:18:46;14.73;;;10.83;;
3379;SDS011;1703;51.964;7.642;2023-04-15T08:21:13;12.47;;;9.70;;
3379;SDS011;1703;51.964;7.642;2023-04-15T08:23:42;12.63;;;10.10;;
3379;SDS011;1703;51.964;7.642;2023-04-15T08:26:09;12.10;;;9.00;;
3379;SDS011;1703;51.964;7.642;2023-04-15T08:28:36;18.10;;;9.27;;
3379;SDS011;1703;51.964;7.642;2023-04-15T08:31:04;13.87;;;10.43;;
3379;SDS011;1703;51.964;7.642;2023-04-15T08:33:31;16.60;;;10.37;;
3379;SDS011;1703;51.964;7.642;2023-04-15T08:35:59;15.00;;;10.47;;
3379;SDS011;1703;51.964;7.642;2023-04-15T08:38:26;15.07;;;10.67;;
3379;SDS011;1703;51.964;7.642;2023-04-15T08:40:53;13.30;;;10.17;;
3379;SDS011;1703;51.964;7.642;2023-04-15T08:43:23;13.80;;;10.20;;
3379;SDS011;1703;51.964;7.642;2023-04-15T08:45:54;13.57;;;9.93;;
3379;SDS011;1703;51.964;7.642;2023-04-15T08:48:24;12.63;;;10.90;;
3379;SDS011;1703;51.964;7.642;2023-04-15T08:50:54;14.73;;;10.20;;
3379;SDS011;1703;51.964;7.642;2023-04-15T08:53:23;16.10;;;9.67;;
3379;SDS011;1703;51.964;7.642;2023-04-15T08:55:50;16.83;;;9.73;;
3379;SDS011;1703;51.964;7.642;2023-04-15T08:58:18;12.97;;;9.37;;
3379;SDS011;1703;51.964;7.642;2023-04-15T09:00:45;14.70;;;10.13;;
3379;SDS011;1703;51.964;7.642;2023-04-15T09:03:12;12.27;;;8.83;;
3379;SDS011;1703;51.964;7.642;2023-04-15T09:05:40;13.50;;;9.10;;
3379;SDS011;1703;51.964;7.642;2023-04-15T09:08:07;10.40;;;8.60;;
3379;SDS011;1703;51.964;7.642;2023-04-15T09:10:35;11.40;;;8.70;;
3379;SDS011;1703;51.964;7.642;2023-04-15T09:13:02;11.17;;;7.80;;
3379;SDS011;1703;51.964;7.642;2023-04-15T09:15:29;14.20;;;9.13;;
3379;SDS011;1703;51.964;7.642;2023-04-15T09:17:58;12.33;;;8.10;;
3379;SDS011;1703;51.964;7.642;2023-04-15T09:20:25;13.53;;;9.30;;
3379;SDS011;1703;51.964;7.642;2023-04-15T09:22:52;13.83;;;9.13;;
3379;SDS011;1703;51.964;7.642;2023-04-15T09:25:25;12.70;;;9.67;;
3379;SDS011;1703;51.964;7.642;2023-04-15T09:27:55;13.53;;;9.60;;
3379;SDS011;1703;51.964;7.642;2023-04-15T09:30:23;11.60;;;7.87;;
3379;SDS011;1703;51.964;7.642;2023-04-15T09:32:51;12.60;;;8.23;;
3379;SDS011;1703;51.964;7.642;2023-04-15T09:35:18;10.90;;;8.03;;
3379;SDS011;1703;51.964;7.642;2023-04-15T09:37:46;14.97;;;9.17;;
3379;SDS011;1703;51.964;7.642;2023-04-15T09:40:13;13.10;;;8.90;;
3379;SDS011;1703;51.964;7.642;2023-04-15T09:42:56;14.00;;;8.60;;
3379;SDS011;1703;51.964;7.642;2023-04-15T09:45:24;11.07;;;7.73;;
3379;SDS011;1703;51.964;7.642;2023-04-15T09:47:51;10.47;;;8.57;;
3379;SDS011;1703;51.964;7.642;2023-04-15T09:50:18;9.93;;;7.23;;
3379;SDS011;1703;51.964;7.642;2023-04-15T09:52:45;9.07;;;6.50;;
3379;SDS011;1703;51.964;7.642;2023-04-15T09:55:13;8.77;;;7.87;;
3379;SDS011;1703;51.964;7.642;2023-04-15T09:57:41;12.70;;;8.60;;
3379;SDS011;1703;51.964;7.642;2023-04-15T10:00:10;9.20;;;7.70;;
3379;SDS011;1703;51.964;7.642;2023-04-15T10:02:38;7.60;;;6.50;;
3379;SDS011;1703;51.964;7.642;2023-04-15T10:05:06;10.10;;;8.10;;
3379;SDS011;1703;51.964;7.642;2023-04-15T10:07:35;11.27;;;8.20;;
3379;SDS011;1703;51.964;7.642;2023-04-15T10:10:05;11.33;;;7.90;;
3379;SDS011;1703;51.964;7.642;2023-04-15T10:12:33;8.57;;;7.33;;
3379;SDS011;1703;51.964;7.642;2023-04-15T10:15:03;9.30;;;7.70;;
3379;SDS011;1703;51.964;7.642;2023-04-15T10:17:32;12.03;;;7.50;;
3379;SDS011;1703;51.964;7.642;2023-04-15T10:20:01;10.50;;;7.57;;
3379;SDS011;1703;51.964;7.642;2023-04-15T10:22:30;13.33;;;8.90;;
3379;SDS011;1703;51.964;7.642;2023-04-15T10:24:58;12.20;;;9.20;;
3379;SDS011;1703;51.964;7.642;2023-04-15T10:27:25;12.53;;;9.90;;
3379;SDS011;1703;51.964;7.642;2023-04-15T10:29:53;12.47;;;9.00;;
3379;SDS011;1703;51.964;7.642;2023-04-15T10:32:20;14.00;;;8.30;;
3379;SDS011;1703;51.964;7.642;2023-04-15T10:34:50;11.10;;;7.90;;
3379;SDS011;1703;51.964;7.642;2023-04-15T10:37:21;8.97;;;6.83;;
3379;SDS011;1703;51.964;7.642;2023-04-15T10:39:48;11.87;;;7.73;;
3379;SDS011;1703;51.964;7.642;2023-04-15T10:42:15;12.37;;;7.63;;
3379;SDS011;1703;51.964;7.642;2023-04-15T10:44:46;10.53;;;7.40;;
3379;SDS011;1703;51.964;7.642;2023-04-15T10:47:16;8.93;;;7.57;;
3379;SDS011;1703;51.964;7.642;2023-04-15T10:49:45;9.67;;;6.83;;
3379;SDS011;1703;51.964;7.642;2023-04-15T10:52:15;8.87;;;6.47;;
3379;SDS011;1703;51.964;7.642;2023-04-15T10:54:47;7.70;;;6.50;;
3379;SDS011;1703;51.964;7.642;2023-04-15T10:57:15;9.27;;;6.87;;
3379;SDS011;1703;51.964;7.642;2023-04-15T11:00:00;8.43;;;6.73;;
3379;SDS011;1703;51.964;7.642;2023-04-15T11:02:41;10.80;;;6.30;;
3379;SDS011;1703;51.964;7.642;2023-04-15T11:05:10;7.93;;;6.30;;
3379;SDS011;1703;51.964;7.642;2023-04-15T11:07:46;6.37;;;5.30;;
3379;SDS011;1703;51.964;7.642;2023-04-15T11:13:22;5.23;;;4.73;;
3379;SDS011;1703;51.964;7.642;2023-04-15T11:15:53;6.37;;;5.73;;
3379;SDS011;1703;51.964;7.642;2023-04-15T11:18:26;8.43;;;5.40;;
3379;SDS011;1703;51.964;7.642;2023-04-15T11:20:55;5.50;;;4.40;;
3379;SDS011;1703;51.964;7.642;2023-04-15T11:23:29;6.10;;;5.27;;
3379;SDS011;1703;51.964;7.642;2023-04-15T11:26:01;10.00;;;5.37;;
3379;SDS011;1703;51.964;7.642;2023-04-15T11:28:30;5.60;;;4.93;;
3379;SDS011;1703;51.964;7.642;2023-04-15T11:31:04;5.77;;;4.43;;
3379;SDS011;1703;51.964;7.642;2023-04-15T11:33:32;5.80;;;4.73;;
3379;SDS011;1703;51.964;7.642;2023-04-15T11:35:59;6.53;;;3.87;;
3379;SDS011;1703;51.964;7.642;2023-04-15T11:38:26;4.70;;;4.20;;
3379;SDS011;1703;51.964;7.642;2023-04-15T11:40:54;4.00;;;3.40;;
3379;SDS011;1703;51.964;7.642;2023-04-15T11:43:21;6.00;;;4.53;;
3379;SDS011;1703;51.964;7.642;2023-04-15T11:45:50;3.73;;;3.43;;
3379;SDS011;1703;51.964;7.642;2023-04-15T11:48:18;5.53;;;4.00;;
3379;SDS011;1703;51.964;7.642;2023-04-15T11:50:51;4.50;;;4.10;;
3379;SDS011;1703;51.964;7.642;2023-04-15T11:53:18;4.30;;;3.90;;
3379;SDS011;1703;51.964;7.642;2023-04-15T11:55:47;4.70;;;3.90;;
3379;SDS011;1703;51.964;7.642;2023-04-15T11:58:17;4.23;;;3.43;;
3379;SDS011;1703;51.964;7.642;2023-04-15T12:00:45;5.40;;;4.73;;
3379;SDS011;1703;51.964;7.642;2023-04-15T12:03:15;3.97;;;3.57;;
3379;SDS011;1703;51.964;7.642;2023-04-15T12:08:47;3.27;;;2.97;;
3379;SDS011;1703;51.964;7.642;2023-04-15T12:11:19;3.77;;;2.93;;
3379;SDS011;1703;51.964;7.642;2023-04-15T12:13:48;3.87;;;3.53;;
3379;SDS011;1703;51.964;7.642;2023-04-15T12:16:16;4.00;;;3.20;;
3379;SDS011;1703;51.964;7.642;2023-04-15T12:18:44;3.33;;;3.03;;
3379;SDS011;1703;51.964;7.642;2023-04-15T12:21:12;6.53;;;4.10;;
3379;SDS011;1703;51.964;7.642;2023-04-15T12:23:46;7.40;;;4.03;;
3379;SDS011;1703;51.964;7.642;2023-04-15T12:26:15;4.33;;;3.70;;
3379;SDS011;1703;51.964;7.642;2023-04-15T12:28:42;6.93;;;3.33;;
3379;SDS011;1703;51.964;7.642;2023-04-15T12:31:11;7.47;;;3.93;;
3379;SDS011;1703;51.964;7.642;2023-04-15T12:33:39;3.60;;;2.80;;
3379;SDS011;1703;51.964;7.642;2023-04-15T12:36:06;3.97;;;3.57;;
3379;SDS011;1703;51.964;7.642;2023-04-15T12:38:33;5.17;;;3.53;;
3379;SDS011;1703;51.964;7.642;2023-04-15T12:41:00;4.80;;;2.77;;
3379;SDS011;1703;51.964;7.642;2023-04-15T12:43:27;3.67;;;3.37;;
3379;SDS011;1703;51.964;7.642;2023-04-15T12:45:54;4.57;;;4.17;;
3379;SDS011;1703;51.964;7.642;2023-04-15T12:48:22;4.10;;;3.20;;
3379;SDS011;1703;51.964;7.642;2023-04-15T12:50:49;4.33;;;3.90;;
3379;SDS011;1703;51.964;7.642;2023-04-15T12:53:16;3.03;;;2.83;;
3379;SDS011;1703;51.964;7.642;2023-04-15T12:55:43;4.50;;;3.17;;
3379;SDS011;1703;51.964;7.642;2023-04-15T12:58:10;3.07;;;2.80;;
3379;SDS011;1703;51.964;7.642;2023-04-15T13:00:36;3.60;;;3.30;;
3379;SDS011;1703;51.964;7.642;2023-04-15T13:03:04;2.90;;;2.60;;
3379;SDS011;1703;51.964;7.642;2023-04-15T13:05:32;5.70;;;3.80;;
3379;SDS011;1703;51.964;7.642;2023-04-15T13:08:01;4.00;;;3.60;;
3379;SDS011;1703;51.964;7.642;2023-04-15T13:10:28;6.20;;;4.93;;
3379;SDS011;1703;51.964;7.642;2023-04-15T13:12:55;4.50;;;4.10;;
3379;SDS011;1703;51.964;7.642;2023-04-15T13:15:22;3.20;;;2.90;;
3379;SDS011;1703;51.964;7.642;2023-04-15T13:17:50;5.27;;;4.87;;
3379;SDS011;1703;51.964;7.642;2023-04-15T13:20:16;11.20;;;3.93;;
3379;SDS011;1703;51.964;7.642;2023-04-15T13:22:45;3.50;;;3.20;;
3379;SDS011;1703;51.964;7.642;2023-04-15T13:25:12;5.87;;;3.33;;
3379;SDS011;1703;51.964;7.642;2023-04-15T13:27:38;3.83;;;2.63;;
3379;SDS011;1703;51.964;7.642;2023-04-15T13:30:06;3.87;;;3.57;;
3379;SDS011;1703;51.964;7.642;2023-04-15T13:32:33;3.20;;;2.97;;
3379;SDS011;1703;51.964;7.642;2023-04-15T13:35:01;3.03;;;2.47;;
3379;SDS011;1703;51.964;7.642;2023-04-15T13:37:30;3.50;;;3.17;;
3379;SDS011;1703;51.964;7.642;2023-04-15T13:39:58;4.27;;;2.93;;
3379;SDS011;1703;51.964;7.642;2023-04-15T13:42:25;5.20;;;3.27;;
3379;SDS011;1703;51.964;7.642;2023-04-15T13:44:52;5.77;;;2.30;;
3379;SDS011;1703;51.964;7.642;2023-04-15T13:47:19;2.97;;;2.67;;
3379;SDS011;1703;51.964;7.642;2023-04-15T13:49:46;3.93;;;2.90;;
3379;SDS011;1703;51.964;7.642;2023-04-15T13:52:13;4.50;;;2.70;;
3379;SDS011;1703;51.964;7.642;2023-04-15T13:54:40;4.13;;;2.80;;
3379;SDS011;1703;51.964;7.642;2023-04-15T13:57:09;6.43;;;2.83;;
3379;SDS011;1703;51.964;7.642;2023-04-15T13:59:36;3.73;;;3.43;;
3379;SDS011;1703;51.964;7.642;2023-04-15T14:02:02;5.27;;;3.70;;
3379;SDS011;1703;51.964;7.642;2023-04-15T14:04:29;6.57;;;4.53;;
3379;SDS011;1703;51.964;7.642;2023-04-15T14:06:56;2.50;;;2.30;;
3379;SDS011;1703;51.964;7.642;2023-04-15T14:09:23;22.27;;;4.97;;
3379;SDS011;1703;51.964;7.642;2023-04-15T14:11:50;8.30;;;3.73;;
3379;SDS011;1703;51.964;7.642;2023-04-15T14:14:18;4.30;;;3.50;;
3379;SDS011;1703;51.964;7.642;2023-04-15T14:16:45;5.00;;;3.30;;
3379;SDS011;1703;51.964;7.642;2023-04-15T14:19:13;3.10;;;2.53;;
3379;SDS011;1703;51.964;7.642;2023-04-15T14:21:40;5.23;;;3.80;;
3379;SDS011;1703;51.964;7.642;2023-04-15T14:24:07;5.17;;;2.80;;
3379;SDS011;1703;51.964;7.642;2023-04-15T14:26:33;3.87;;;3.40;;
3379;SDS011;1703;51.964;7.642;2023-04-15T14:29:00;6.13;;;3.70;;
3379;SDS011;1703;51.964;7.642;2023-04-15T14:31:29;4.30;;;3.23;;
3379;SDS011;1703;51.964;7.642;2023-04-15T14:33:55;4.10;;;3.33;;
3379;SDS011;1703;51.964;7.642;2023-04-15T14:36:22;5.57;;;3.20;;
3379;SDS011;1703;51.964;7.642;2023-04-15T14:38:50;3.20;;;3.00;;
3379;SDS011;1703;51.964;7.642;2023-04-15T14:41:16;3.87;;;3.53;;
3379;SDS011;1703;51.964;7.642;2023-04-15T14:43:43;5.97;;;3.70;;
3379;SDS011;1703;51.964;7.642;2023-04-15T14:46:10;5.83;;;3.70;;
3379;SDS011;1703;51.964;7.642;2023-04-15T14:48:39;4.53;;;3.13;;
3379;SDS011;1703;51.964;7.642;2023-04-15T14:51:07;3.00;;;2.70;;
3379;SDS011;1703;51.964;7.642;2023-04-15T14:53:34;3.80;;;3.07;;
3379;SDS011;1703;51.964;7.642;2023-04-15T14:56:01;3.33;;;3.03;;
3379;SDS011;1703;51.964;7.642;2023-04-15T14:58:28;5.97;;;3.43;;
3379;SDS011;1703;51.964;7.642;2023-04-15T15:00:55;5.43;;;4.27;;
3379;SDS011;1703;51.964;7.642;2023-04-15T15:03:22;4.37;;;3.97;;
3379;SDS011;1703;51.964;7.642;2023-04-15T15:05:50;4.33;;;4.03;;
3379;SDS011;1703;51.964;7.642;2023-04-15T15:08:17;6.90;;;4.00;;
3379;SDS011;1703;51.964;7.642;2023-04-15T15:10:44;9.30;;;4.13;;
3379;SDS011;1703;51.964;7.642;2023-04-15T15:13:10;3.30;;;3.00;;
3379;SDS011;1703;51.964;7.642;2023-04-15T15:15:37;5.70;;;4.10;;